Terminal Aerodrome Forecast
Issued by NWS Wichita, KS

Home | Current Version | Previous Version | Text Only | Print | Product List | Glossary Off
Versions: 1 2 3 4 5 6 7 8 9 10 11 12 13 14 15 16 17 18 19 20 21 22 23 24 25 26 27 28

000
FTUS43 KICT 270213 AAB
TAFICT
TAF AMD
KICT 270213Z 2702/2724 16015G24KT P6SM SCT050 BKN120
      TEMPO 2703/2705 VRB25G40KT 1SM +TSRA OVC025CB
     FM270500 16014KT P6SM SCT015 BKN050
     FM271000 15011KT 6SM BR OVC010
     FM271600 17015G23KT P6SM SCT030
     FM271900 17017G24KT P6SM VCTS BKN035CB=

USA.gov is the U.S. government's official web portal to all federal, state and local government web resources and services.